createdAt,value
2022-09-17T00:00:51.458Z,22.20
2022-09-17T00:03:36.799Z,22.10
2022-09-17T00:06:24.611Z,21.90
2022-09-17T00:09:10.552Z,22.00
2022-09-17T00:11:56.087Z,21.80
2022-09-17T00:14:41.716Z,21.80
2022-09-17T00:17:27.339Z,21.70
2022-09-17T00:20:13.335Z,21.60
2022-09-17T00:22:58.945Z,21.60
2022-09-17T00:25:47.318Z,21.50
2022-09-17T00:28:33.062Z,21.80
2022-09-17T00:31:19.417Z,21.60
2022-09-17T00:34:06.395Z,21.40
2022-09-17T00:36:52.089Z,21.40
2022-09-17T00:39:37.783Z,21.40
2022-09-17T00:42:24.293Z,21.00
2022-09-17T00:45:10.745Z,21.00
2022-09-17T00:48:02.633Z,21.00
2022-09-17T00:50:48.320Z,20.90
2022-09-17T00:53:33.770Z,20.90
2022-09-17T00:56:32.673Z,20.90
2022-09-17T00:59:20.055Z,21.10
2022-09-17T01:02:06.140Z,20.90
2022-09-17T01:04:51.857Z,20.90
2022-09-17T01:07:55.679Z,20.90
2022-09-17T01:10:50.150Z,20.70
2022-09-17T01:13:57.302Z,20.70
2022-09-17T01:16:51.847Z,20.60
2022-09-17T01:19:52.453Z,20.70
2022-09-17T01:23:04.714Z,20.70
2022-09-17T01:26:12.570Z,18.80
2022-09-17T01:29:08.886Z,20.70
2022-09-17T01:31:57.392Z,20.70
2022-09-17T01:35:01.775Z,20.60
2022-09-17T01:37:53.968Z,20.70
2022-09-17T01:40:50.020Z,20.50
2022-09-17T01:44:10.202Z,20.50
2022-09-17T01:47:20.759Z,20.70
2022-09-17T01:50:12.282Z,20.40
2022-09-17T01:53:00.253Z,20.40
2022-09-17T01:55:49.238Z,20.40
2022-09-17T01:58:42.770Z,20.50
2022-09-17T02:01:33.073Z,20.50
2022-09-17T02:04:33.043Z,20.30
2022-09-17T02:07:21.245Z,20.10
2022-09-17T02:10:11.731Z,20.00
2022-09-17T02:13:06.946Z,20.20
2022-09-17T02:16:02.371Z,20.20
2022-09-17T02:19:25.041Z,20.00
2022-09-17T02:22:10.629Z,19.90
2022-09-17T02:24:56.811Z,19.80
2022-09-17T02:28:03.296Z,19.50
2022-09-17T02:30:49.087Z,19.60
2022-09-17T02:33:37.083Z,19.50
2022-09-17T02:36:24.735Z,19.40
2022-09-17T02:39:10.386Z,19.40
2022-09-17T02:42:29.193Z,19.20
2022-09-17T02:45:20.834Z,19.10
2022-09-17T02:48:27.560Z,19.10
2022-09-17T02:51:57.443Z,19.10
2022-09-17T02:55:12.808Z,19.20
2022-09-17T02:58:04.484Z,19.00
2022-09-17T03:00:50.971Z,19.10
2022-09-17T03:03:43.803Z,19.10
2022-09-17T03:06:32.227Z,19.00
2022-09-17T03:09:17.575Z,18.60
2022-09-17T03:12:04.217Z,18.30
2022-09-17T03:14:49.996Z,18.20
2022-09-17T03:17:35.991Z,18.50
2022-09-17T03:20:21.927Z,18.50
2022-09-17T03:23:07.658Z,18.80
2022-09-17T03:25:53.249Z,18.90
2022-09-17T03:28:41.694Z,19.10
2022-09-17T03:31:27.278Z,19.30
2022-09-17T03:34:13.389Z,19.30
2022-09-17T03:36:59.452Z,19.00
2022-09-17T03:39:45.276Z,18.60
2022-09-17T03:42:31.051Z,18.50
2022-09-17T03:45:17.124Z,18.40
2022-09-17T03:48:02.865Z,18.40
2022-09-17T03:50:48.679Z,18.20
2022-09-17T03:53:35.268Z,18.00
2022-09-17T03:56:20.726Z,17.90
2022-09-17T03:59:06.860Z,17.90
2022-09-17T04:01:52.373Z,17.80
2022-09-17T04:04:37.854Z,17.80
2022-09-17T04:07:25.027Z,17.90
2022-09-17T04:10:11.075Z,18.00
2022-09-17T04:12:56.908Z,18.20
2022-09-17T04:15:42.730Z,18.20
2022-09-17T04:18:28.673Z,18.20
2022-09-17T04:21:14.575Z,17.70
2022-09-17T04:24:00.301Z,17.50
2022-09-17T04:26:45.886Z,17.60
2022-09-17T04:29:31.465Z,17.80
2022-09-17T04:32:17.116Z,18.40
2022-09-17T04:35:03.093Z,18.40
2022-09-17T04:37:58.550Z,18.20
2022-09-17T04:40:45.199Z,18.10
2022-09-17T04:43:31.001Z,18.00
2022-09-17T04:46:17.004Z,18.10
2022-09-17T04:49:03.148Z,18.20
2022-09-17T04:51:48.806Z,18.20
2022-09-17T04:54:34.452Z,18.30
2022-09-17T04:57:20.016Z,18.40
2022-09-17T05:00:10.936Z,18.50
2022-09-17T05:02:56.975Z,18.20
2022-09-17T05:05:43.112Z,18.00
2022-09-17T05:08:29.064Z,17.70
2022-09-17T05:11:14.915Z,17.40
2022-09-17T05:14:01.006Z,17.10
2022-09-17T05:16:46.929Z,17.20
2022-09-17T05:19:32.613Z,16.90
2022-09-17T05:22:21.479Z,16.70
2022-09-17T05:25:07.910Z,16.50
2022-09-17T05:27:54.651Z,16.60
2022-09-17T05:30:40.055Z,16.60
2022-09-17T05:33:25.830Z,16.70
2022-09-17T05:36:11.593Z,16.80
2022-09-17T05:38:57.222Z,16.50
2022-09-17T05:41:43.551Z,16.30
2022-09-17T05:44:29.286Z,16.30
2022-09-17T05:47:14.852Z,16.30
2022-09-17T05:50:00.726Z,16.30
2022-09-17T05:52:46.851Z,16.50
2022-09-17T05:55:33.744Z,16.50
2022-09-17T05:58:20.385Z,16.50
2022-09-17T06:01:06.152Z,16.40
2022-09-17T06:03:51.942Z,16.60
2022-09-17T06:06:38.987Z,16.80
2022-09-17T06:09:24.763Z,16.90
2022-09-17T06:12:10.512Z,17.00
2022-09-17T06:14:56.446Z,16.90
2022-09-17T06:17:43.475Z,16.80
2022-09-17T06:20:29.434Z,17.00
2022-09-17T06:23:16.039Z,16.90
2022-09-17T06:26:03.133Z,17.10
2022-09-17T06:28:48.826Z,17.20
2022-09-17T06:31:34.592Z,17.00
2022-09-17T06:34:20.139Z,17.10
2022-09-17T06:37:06.799Z,17.20
2022-09-17T06:39:52.642Z,17.20
2022-09-17T06:42:38.537Z,17.30
2022-09-17T06:45:24.286Z,17.30
2022-09-17T06:48:09.849Z,17.10
2022-09-17T06:50:56.381Z,17.00
2022-09-17T06:53:41.948Z,17.10
2022-09-17T06:56:27.366Z,17.10
2022-09-17T06:59:12.813Z,16.80
2022-09-17T07:01:58.550Z,16.50
2022-09-17T07:04:44.537Z,16.20
2022-09-17T07:07:30.165Z,16.20
2022-09-17T07:10:15.842Z,15.90
2022-09-17T07:13:01.249Z,15.70
2022-09-17T07:15:56.594Z,15.70
2022-09-17T07:18:42.119Z,15.60
2022-09-17T07:21:27.449Z,15.70
2022-09-17T07:24:13.018Z,15.70
2022-09-17T07:26:58.575Z,15.80
2022-09-17T07:29:44.712Z,15.80
2022-09-17T07:32:31.528Z,14.80
2022-09-17T07:35:17.751Z,15.70
2022-09-17T07:38:03.481Z,16.00
2022-09-17T07:41:04.391Z,15.90
2022-09-17T07:43:53.767Z,15.80
2022-09-17T07:46:39.595Z,15.10
2022-09-17T07:49:25.915Z,15.10
2022-09-17T07:52:11.917Z,15.20
2022-09-17T07:54:57.649Z,15.10
2022-09-17T07:57:43.301Z,15.20
2022-09-17T08:00:29.517Z,15.40
2022-09-17T08:03:15.581Z,14.50
2022-09-17T08:06:04.959Z,15.20
2022-09-17T08:08:50.848Z,14.90
2022-09-17T08:11:56.077Z,15.10
2022-09-17T08:14:42.888Z,15.20
2022-09-17T08:17:29.287Z,14.90
2022-09-17T08:20:16.300Z,14.80
2022-09-17T08:23:02.173Z,15.00
2022-09-17T08:25:53.423Z,15.10
2022-09-17T08:28:39.517Z,15.10
2022-09-17T08:31:27.049Z,15.30
2022-09-17T08:34:13.430Z,15.30
2022-09-17T08:36:59.023Z,15.50
2022-09-17T08:39:44.605Z,15.40
2022-09-17T08:42:33.563Z,15.60
2022-09-17T08:45:21.255Z,15.70
2022-09-17T08:48:11.828Z,15.80
2022-09-17T08:51:02.401Z,15.70
2022-09-17T08:53:53.426Z,15.40
2022-09-17T08:56:41.580Z,15.60
2022-09-17T08:59:39.893Z,15.90
2022-09-17T09:02:40.594Z,16.20
2022-09-17T09:05:44.278Z,16.40
2022-09-17T09:08:39.005Z,15.90
2022-09-17T09:11:31.010Z,15.40
2022-09-17T09:14:23.193Z,15.00
2022-09-17T09:17:10.989Z,14.80
2022-09-17T09:19:58.121Z,14.70
2022-09-17T09:22:52.036Z,14.60
2022-09-17T09:29:25.584Z,14.50
2022-09-17T09:32:36.374Z,14.60
2022-09-17T09:35:31.294Z,14.80
2022-09-17T09:38:35.359Z,13.20
2022-09-17T09:41:40.479Z,15.00
2022-09-17T09:44:26.508Z,14.80
2022-09-17T09:47:39.077Z,15.00
2022-09-17T09:51:06.499Z,15.00
2022-09-17T09:54:24.992Z,14.90
2022-09-17T09:57:17.680Z,14.80
2022-09-17T10:00:26.239Z,14.90
2022-09-17T10:03:21.278Z,14.90
2022-09-17T10:06:09.756Z,14.90
2022-09-17T10:08:55.339Z,14.90
2022-09-17T10:11:42.474Z,14.90
2022-09-17T10:14:34.179Z,15.10
2022-09-17T10:17:27.140Z,15.10
2022-09-17T10:20:20.731Z,15.10
2022-09-17T10:23:08.928Z,15.10
2022-09-17T10:25:55.835Z,15.60
2022-09-17T10:28:50.140Z,16.00
2022-09-17T10:31:56.293Z,16.00
2022-09-17T10:34:57.532Z,16.40
2022-09-17T10:37:42.990Z,16.70
2022-09-17T10:40:32.262Z,18.70
2022-09-17T10:43:21.852Z,19.40
2022-09-17T10:46:11.944Z,20.10
2022-09-17T10:49:11.490Z,20.50
2022-09-17T10:52:25.196Z,19.30
2022-09-17T10:55:36.132Z,20.30
2022-09-17T10:58:34.259Z,20.30
2022-09-17T11:02:02.230Z,20.60
2022-09-17T11:05:41.809Z,21.10
2022-09-17T11:08:46.061Z,19.90
2022-09-17T11:11:56.074Z,20.40
2022-09-17T11:15:03.710Z,20.40
2022-09-17T11:17:54.892Z,21.60
2022-09-17T11:20:59.298Z,22.40
2022-09-17T11:24:06.980Z,24.00
2022-09-17T11:27:15.740Z,22.20
2022-09-17T11:30:04.388Z,20.80
2022-09-17T11:33:15.885Z,22.80
2022-09-17T11:36:10.858Z,25.50
2022-09-17T11:39:07.488Z,25.90
2022-09-17T11:41:55.569Z,24.70
2022-09-17T11:44:55.966Z,26.10
2022-09-17T11:47:48.048Z,26.70
2022-09-17T11:50:49.768Z,25.60
2022-09-17T11:54:05.645Z,23.20
2022-09-17T11:57:09.707Z,22.90
2022-09-17T12:00:16.134Z,23.20
2022-09-17T12:03:15.931Z,21.20
2022-09-17T12:06:11.969Z,20.80
2022-09-17T12:09:05.000Z,21.20
2022-09-17T12:12:48.489Z,21.50
2022-09-17T12:15:36.080Z,20.80
2022-09-17T12:18:44.508Z,19.70
2022-09-17T12:22:12.768Z,19.90
2022-09-17T12:25:00.255Z,20.50
2022-09-17T12:28:04.989Z,20.50
2022-09-17T12:31:00.729Z,20.50
2022-09-17T12:34:08.955Z,21.00
2022-09-17T12:37:33.618Z,21.10
2022-09-17T12:40:54.392Z,21.30
2022-09-17T12:43:49.031Z,21.30
2022-09-17T12:46:53.240Z,21.20
2022-09-17T12:50:01.535Z,21.30
2022-09-17T12:53:22.432Z,20.30
2022-09-17T12:56:17.059Z,20.40
2022-09-17T12:59:10.342Z,20.80
2022-09-17T13:01:58.588Z,20.90
2022-09-17T13:05:08.120Z,20.80
2022-09-17T13:08:07.771Z,20.00
2022-09-17T13:11:10.064Z,20.30
2022-09-17T13:14:07.263Z,21.00
2022-09-17T13:17:15.645Z,20.80
2022-09-17T13:20:32.486Z,21.00
2022-09-17T13:23:34.246Z,20.90
2022-09-17T13:26:32.912Z,20.70
2022-09-17T13:29:43.784Z,20.70
2022-09-17T13:32:35.882Z,20.30
2022-09-17T13:35:22.204Z,20.00
2022-09-17T13:38:08.425Z,20.20
2022-09-17T13:41:18.832Z,20.40
2022-09-17T13:44:09.205Z,20.20
2022-09-17T13:47:26.308Z,20.30
2022-09-17T13:50:33.040Z,20.90
2022-09-17T13:53:26.759Z,20.10
2022-09-17T13:56:32.918Z,20.10
2022-09-17T13:59:23.246Z,19.90
2022-09-17T14:02:18.121Z,20.00
2022-09-17T14:05:29.296Z,20.50
2022-09-17T14:08:29.247Z,20.60
2022-09-17T14:11:27.906Z,20.50
2022-09-17T14:14:13.726Z,20.50
2022-09-17T14:16:59.570Z,20.10
2022-09-17T14:19:51.527Z,20.40
2022-09-17T14:22:37.714Z,20.40
2022-09-17T14:25:40.345Z,20.30
2022-09-17T14:28:41.539Z,20.20
2022-09-17T14:31:33.970Z,20.30
2022-09-17T14:34:22.992Z,20.30
2022-09-17T14:37:15.828Z,20.60
2022-09-17T14:40:45.404Z,20.40
2022-09-17T14:43:42.977Z,20.50
2022-09-17T14:46:36.693Z,21.20
2022-09-17T14:49:26.166Z,21.40
2022-09-17T14:52:38.375Z,20.70
2022-09-17T14:55:28.066Z,20.70
2022-09-17T14:58:30.609Z,20.30
2022-09-17T15:01:27.293Z,19.90
2022-09-17T15:04:12.823Z,20.30
2022-09-17T15:07:09.912Z,20.30
2022-09-17T15:10:06.028Z,20.50
2022-09-17T15:12:51.714Z,20.50
2022-09-17T15:15:38.989Z,20.40
2022-09-17T15:18:35.751Z,19.90
2022-09-17T15:21:41.839Z,20.10
2022-09-17T15:24:40.361Z,19.80
2022-09-17T15:27:37.624Z,20.00
2022-09-17T15:30:25.494Z,20.10
2022-09-17T15:33:12.642Z,20.40
2022-09-17T15:36:09.827Z,20.40
2022-09-17T15:38:55.937Z,20.40
2022-09-17T15:41:42.010Z,20.10
2022-09-17T15:44:30.750Z,20.30
2022-09-17T15:47:53.746Z,20.10
2022-09-17T15:50:54.097Z,20.20
2022-09-17T15:53:50.412Z,20.30
2022-09-17T15:56:40.352Z,20.40
2022-09-17T15:59:31.349Z,20.60
2022-09-17T16:02:37.177Z,20.60
2022-09-17T16:05:25.749Z,20.50
2022-09-17T16:08:19.349Z,20.40
2022-09-17T16:11:05.252Z,20.20
2022-09-17T16:13:52.179Z,20.40
2022-09-17T16:16:38.292Z,20.10
2022-09-17T16:19:23.973Z,20.40
2022-09-17T16:22:09.693Z,20.00
2022-09-17T16:24:55.593Z,19.70
2022-09-17T16:27:57.557Z,19.90
2022-09-17T16:30:47.742Z,19.90
2022-09-17T16:33:33.273Z,20.00
2022-09-17T16:36:19.202Z,19.90
2022-09-17T16:39:05.435Z,19.80
2022-09-17T16:41:52.210Z,19.80
2022-09-17T16:44:37.993Z,20.00
2022-09-17T16:47:23.589Z,20.00
2022-09-17T16:50:17.618Z,20.30
2022-09-17T16:53:05.305Z,20.30
2022-09-17T16:55:51.402Z,20.00
2022-09-17T16:58:37.972Z,20.10
2022-09-17T17:01:23.955Z,20.20
2022-09-17T17:04:09.724Z,20.10
2022-09-17T17:06:55.218Z,20.10
2022-09-17T17:09:40.894Z,19.90
2022-09-17T17:12:27.511Z,20.20
2022-09-17T17:15:13.645Z,19.70
2022-09-17T17:17:59.251Z,19.40
2022-09-17T17:20:48.687Z,19.80
2022-09-17T17:23:35.583Z,19.70
2022-09-17T17:26:20.939Z,19.60
2022-09-17T17:29:06.686Z,19.40
2022-09-17T17:31:52.810Z,19.40
2022-09-17T17:34:38.452Z,19.40
2022-09-17T17:37:24.646Z,19.20
2022-09-17T17:40:10.876Z,20.90
2022-09-17T17:42:56.434Z,19.40
2022-09-17T17:45:42.098Z,19.60
2022-09-17T17:48:28.313Z,19.70
2022-09-17T17:51:13.744Z,19.50
2022-09-17T17:53:59.623Z,19.40
2022-09-17T17:56:46.248Z,19.30
2022-09-17T17:59:32.432Z,19.20
2022-09-17T18:02:18.265Z,19.20
2022-09-17T18:05:04.625Z,19.10
2022-09-17T18:07:50.630Z,19.30
2022-09-17T18:10:36.571Z,19.40
2022-09-17T18:13:23.825Z,19.60
2022-09-17T18:16:12.886Z,19.60
2022-09-17T18:18:58.787Z,19.50
2022-09-17T18:21:44.199Z,19.50
2022-09-17T18:24:29.681Z,19.40
2022-09-17T18:27:15.388Z,19.30
2022-09-17T18:30:01.080Z,18.80
2022-09-17T18:32:48.518Z,18.40
2022-09-17T18:35:36.478Z,18.20
2022-09-17T18:38:22.287Z,18.30
2022-09-17T18:41:12.003Z,18.30
2022-09-17T18:44:00.200Z,18.30
2022-09-17T18:46:47.986Z,18.60
2022-09-17T18:49:33.507Z,19.00
2022-09-17T18:52:19.301Z,18.70
2022-09-17T18:55:05.404Z,18.40
2022-09-17T18:57:53.430Z,18.30
2022-09-17T19:00:40.920Z,18.30
2022-09-17T19:03:26.771Z,18.30
2022-09-17T19:06:17.785Z,18.70
2022-09-17T19:09:05.132Z,18.50
2022-09-17T19:11:50.820Z,18.40
2022-09-17T19:14:36.451Z,18.30
2022-09-17T19:17:21.953Z,18.20
2022-09-17T19:20:08.260Z,18.00
2022-09-17T19:22:53.979Z,18.20
2022-09-17T19:25:39.619Z,17.80
2022-09-17T19:28:25.032Z,17.90
2022-09-17T19:31:13.074Z,18.00
2022-09-17T19:33:59.616Z,17.90
2022-09-17T19:36:45.117Z,17.80
2022-09-17T19:39:30.821Z,17.90
2022-09-17T19:42:16.944Z,17.70
2022-09-17T19:45:02.602Z,17.50
2022-09-17T19:47:48.751Z,17.30
2022-09-17T19:50:34.668Z,17.20
2022-09-17T19:53:21.288Z,17.20
2022-09-17T19:56:10.250Z,17.10
2022-09-17T19:58:56.828Z,17.10
2022-09-17T20:01:46.099Z,17.10
2022-09-17T20:04:34.642Z,17.20
2022-09-17T20:07:20.565Z,17.10
2022-09-17T20:10:07.766Z,17.20
2022-09-17T20:12:53.466Z,17.20
2022-09-17T20:15:39.020Z,17.20
2022-09-17T20:18:24.568Z,17.30
2022-09-17T20:21:12.262Z,17.20
2022-09-17T20:23:58.705Z,17.10
2022-09-17T20:26:44.423Z,17.10
2022-09-17T20:29:29.797Z,16.90
2022-09-17T20:32:15.323Z,17.00
2022-09-17T20:35:00.882Z,17.10
2022-09-17T20:40:54.659Z,17.40
2022-09-17T20:43:42.797Z,17.40
2022-09-17T20:46:29.795Z,17.30
2022-09-17T20:49:15.920Z,17.10
2022-09-17T20:52:01.626Z,17.10
2022-09-17T20:54:47.642Z,17.20
2022-09-17T20:57:33.385Z,17.20
2022-09-17T21:00:21.256Z,17.00
2022-09-17T21:03:07.041Z,16.90
2022-09-17T21:05:52.851Z,17.00
2022-09-17T21:08:38.398Z,17.00
2022-09-17T21:11:24.795Z,16.80
2022-09-17T21:14:15.303Z,16.80
2022-09-17T21:17:01.417Z,16.70
2022-09-17T21:19:46.692Z,16.60
2022-09-17T21:22:32.066Z,16.60
2022-09-17T21:25:17.506Z,16.50
2022-09-17T21:28:03.167Z,16.40
2022-09-17T21:30:49.495Z,16.60
2022-09-17T21:33:34.883Z,16.70
2022-09-17T21:36:23.536Z,16.90
2022-09-17T21:39:15.483Z,17.00
2022-09-17T21:42:01.427Z,16.90
2022-09-17T21:44:47.366Z,16.80
2022-09-17T21:47:33.119Z,17.00
2022-09-17T21:50:18.852Z,17.00
2022-09-17T21:53:04.469Z,17.20
2022-09-17T21:55:50.160Z,16.80
2022-09-17T21:58:35.823Z,15.90
2022-09-17T22:01:24.031Z,16.20
2022-09-17T22:04:13.097Z,16.40
2022-09-17T22:06:59.585Z,16.70
2022-09-17T22:09:45.283Z,16.90
2022-09-17T22:12:30.893Z,17.00
2022-09-17T22:15:16.686Z,17.00
2022-09-17T22:18:04.429Z,17.10
2022-09-17T22:20:50.555Z,17.20
2022-09-17T22:23:35.826Z,17.40
2022-09-17T22:26:25.081Z,17.30
2022-09-17T22:29:16.285Z,17.30
2022-09-17T22:32:02.258Z,17.20
2022-09-17T22:34:47.711Z,17.20
2022-09-17T22:37:33.381Z,17.10
2022-09-17T22:40:19.114Z,17.10
2022-09-17T22:43:04.405Z,17.10
2022-09-17T22:45:50.062Z,17.10
2022-09-17T22:48:35.636Z,17.00
2022-09-17T22:51:21.441Z,17.00
2022-09-17T22:54:10.039Z,16.90
2022-09-17T22:56:55.803Z,16.90
2022-09-17T22:59:41.367Z,16.80
2022-09-17T23:02:26.942Z,16.80
2022-09-17T23:05:12.542Z,16.70
2022-09-17T23:07:58.433Z,16.80
2022-09-17T23:10:44.603Z,16.70
2022-09-17T23:13:31.500Z,16.60
2022-09-17T23:16:18.449Z,16.60
2022-09-17T23:19:05.094Z,16.60
2022-09-17T23:21:50.924Z,16.60
2022-09-17T23:24:37.839Z,16.70
2022-09-17T23:27:23.548Z,16.70
2022-09-17T23:30:09.788Z,16.70
2022-09-17T23:32:56.679Z,16.70
2022-09-17T23:35:42.556Z,16.70
2022-09-17T23:38:30.559Z,16.70
2022-09-17T23:41:29.059Z,16.70
2022-09-17T23:44:16.299Z,16.80
2022-09-17T23:47:02.045Z,16.70
2022-09-17T23:49:47.586Z,16.60
2022-09-17T23:52:33.091Z,16.60
2022-09-17T23:55:18.570Z,16.60
2022-09-17T23:58:04.129Z,16.60
